createdAt,value
2022-09-20T00:03:42.003Z,1.10
2022-09-20T00:06:36.726Z,1.20
2022-09-20T00:09:31.078Z,1.30
2022-09-20T00:12:16.884Z,1.20
2022-09-20T00:13:32.385Z,1.30
2022-09-20T00:15:16.381Z,1.42
2022-09-20T00:18:22.803Z,1.20
2022-09-20T00:19:29.687Z,1.10
2022-09-20T00:20:37.211Z,1.20
2022-09-20T00:21:44.463Z,1.38
2022-09-20T00:22:51.656Z,1.50
2022-09-20T00:24:03.001Z,1.27
2022-09-20T00:25:10.498Z,1.20
2022-09-20T00:26:15.192Z,1.25
2022-09-20T00:27:22.915Z,1.10
2022-09-20T00:28:29.954Z,1.27
2022-09-20T00:29:34.556Z,1.30
2022-09-20T00:30:39.719Z,1.23
2022-09-20T00:31:50.731Z,1.23
2022-09-20T00:32:57.834Z,1.30
2022-09-20T00:34:20.882Z,1.20
2022-09-20T00:35:25.913Z,1.38
2022-09-20T00:36:32.688Z,1.25
2022-09-20T00:37:47.799Z,1.35
2022-09-20T00:39:01.282Z,1.30
2022-09-20T00:40:15.331Z,1.35
2022-09-20T00:41:24.543Z,1.10
2022-09-20T00:42:33.656Z,1.20
2022-09-20T00:44:04.014Z,1.35
2022-09-20T00:45:27.073Z,1.17
2022-09-20T00:46:51.985Z,1.27
2022-09-20T00:48:22.574Z,1.25
2022-09-20T00:49:32.443Z,1.17
2022-09-20T00:50:38.885Z,1.30
2022-09-20T00:51:58.165Z,1.20
2022-09-20T00:53:29.363Z,1.23
2022-09-20T00:54:37.537Z,1.23
2022-09-20T00:56:19.077Z,1.20
2022-09-20T00:57:24.210Z,1.20
2022-09-20T00:58:42.307Z,1.40
2022-09-20T00:59:58.174Z,1.20
2022-09-20T01:01:03.167Z,1.40
2022-09-20T01:02:14.179Z,1.20
2022-09-20T01:03:23.194Z,1.27
2022-09-20T01:04:45.526Z,1.20
2022-09-20T01:05:59.267Z,1.20
2022-09-20T01:07:10.196Z,1.50
2022-09-20T01:08:17.791Z,1.30
2022-09-20T01:09:38.357Z,1.25
2022-09-20T01:10:47.719Z,1.20
2022-09-20T01:12:05.448Z,1.30
2022-09-20T01:13:18.951Z,1.40
2022-09-20T01:14:26.955Z,1.30
2022-09-20T01:15:36.046Z,1.42
2022-09-20T01:16:52.330Z,1.20
2022-09-20T01:18:17.823Z,1.30
2022-09-20T01:20:02.835Z,1.48
2022-09-20T01:21:11.993Z,1.13
2022-09-20T01:22:38.423Z,1.20
2022-09-20T01:24:29.335Z,1.20
2022-09-20T01:26:18.861Z,1.27
2022-09-20T01:27:45.036Z,1.40
2022-09-20T01:29:51.007Z,1.20
2022-09-20T01:31:17.458Z,1.25
2022-09-20T01:32:35.734Z,1.20
2022-09-20T01:34:13.938Z,1.20
2022-09-20T01:35:23.567Z,1.10
2022-09-20T01:37:22.909Z,1.10
2022-09-20T01:39:10.195Z,1.20
2022-09-20T01:41:00.103Z,1.30
2022-09-20T01:42:16.291Z,1.30
2022-09-20T01:43:31.292Z,1.20
2022-09-20T01:45:01.447Z,1.20
2022-09-20T01:46:30.542Z,1.30
2022-09-20T01:48:34.104Z,1.38
2022-09-20T01:50:04.637Z,1.40
2022-09-20T01:51:39.305Z,1.30
2022-09-20T01:53:16.840Z,1.20
2022-09-20T01:54:58.481Z,1.40
2022-09-20T01:58:15.716Z,1.30
2022-09-20T02:00:04.564Z,1.20
2022-09-20T02:01:26.780Z,1.30
2022-09-20T02:03:14.551Z,1.10
2022-09-20T02:05:00.437Z,1.10
2022-09-20T02:06:35.225Z,1.30
2022-09-20T02:07:57.680Z,1.20
2022-09-20T02:09:56.246Z,1.15
2022-09-20T02:11:50.441Z,1.20
2022-09-20T02:13:27.187Z,1.13
2022-09-20T02:14:57.851Z,1.10
2022-09-20T02:16:08.023Z,1.30
2022-09-20T02:17:55.922Z,1.10
2022-09-20T02:19:31.229Z,1.50
2022-09-20T02:21:27.760Z,1.10
2022-09-20T02:24:28.746Z,1.20
2022-09-20T02:26:13.879Z,1.27
2022-09-20T02:27:48.534Z,1.40
2022-09-20T02:29:17.629Z,1.20
2022-09-20T02:30:49.596Z,1.20
2022-09-20T02:32:52.746Z,1.30
2022-09-20T02:34:23.839Z,1.13
2022-09-20T02:35:31.222Z,1.20
2022-09-20T02:37:01.625Z,1.27
2022-09-20T02:38:12.115Z,1.15
2022-09-20T03:05:16.235Z,1.25
2022-09-20T03:06:45.166Z,1.30
2022-09-20T03:08:15.680Z,1.30
2022-09-20T03:10:38.443Z,1.20
2022-09-20T03:12:37.775Z,1.20
2022-09-20T03:14:21.305Z,1.20
2022-09-20T03:16:03.261Z,1.20
2022-09-20T03:17:44.898Z,1.20
2022-09-20T03:19:16.331Z,1.20
2022-09-20T03:21:14.196Z,1.30
2022-09-20T03:22:55.052Z,1.30
2022-09-20T03:24:39.851Z,1.27
2022-09-20T03:26:12.371Z,1.30
2022-09-20T03:27:50.783Z,1.23
2022-09-20T03:29:12.512Z,1.20
2022-09-20T03:30:49.530Z,1.10
2022-09-20T03:32:19.608Z,1.33
2022-09-20T03:33:51.955Z,1.20
2022-09-20T03:35:44.766Z,1.20
2022-09-20T03:37:36.962Z,1.30
2022-09-20T03:39:22.058Z,1.20
2022-09-20T03:41:13.447Z,1.23
2022-09-20T03:42:30.355Z,1.10
2022-09-20T03:44:19.913Z,1.20
2022-09-20T03:45:58.981Z,1.20
2022-09-20T03:47:41.213Z,1.20
2022-09-20T03:48:56.614Z,1.35
2022-09-20T03:50:29.133Z,1.15
2022-09-20T03:52:22.615Z,1.15
2022-09-20T03:54:59.923Z,1.20
2022-09-20T03:56:47.508Z,1.10
2022-09-20T03:58:32.068Z,1.20
2022-09-20T04:00:22.253Z,1.20
2022-09-20T04:02:04.012Z,1.20
2022-09-20T04:03:51.372Z,1.15
2022-09-20T04:05:07.474Z,1.30
2022-09-20T04:06:46.414Z,1.20
2022-09-20T04:08:40.232Z,1.20
2022-09-20T04:10:37.394Z,1.30
2022-09-20T04:12:25.056Z,1.20
2022-09-20T04:13:38.488Z,1.20
2022-09-20T04:15:08.974Z,1.30
2022-09-20T04:16:44.303Z,1.45
2022-09-20T04:18:27.687Z,1.40
2022-09-20T04:19:48.603Z,1.30
2022-09-20T04:21:27.115Z,1.27
2022-09-20T04:22:43.570Z,1.38
2022-09-20T04:24:23.225Z,1.20
2022-09-20T04:25:54.337Z,1.30
2022-09-20T04:27:13.698Z,1.20
2022-09-20T04:29:07.447Z,1.25
2022-09-20T04:30:24.453Z,1.40
2022-09-20T04:32:02.355Z,1.20
2022-09-20T04:37:52.597Z,1.38
2022-09-20T04:39:26.893Z,1.20
2022-09-20T04:41:17.427Z,1.33
2022-09-20T04:42:52.176Z,1.25
2022-09-20T04:44:44.520Z,1.30
2022-09-20T04:46:33.471Z,1.20
2022-09-20T04:48:22.141Z,1.20
2022-09-20T04:50:39.062Z,1.30
2022-09-20T04:52:09.948Z,1.25
2022-09-20T04:53:53.962Z,1.30
2022-09-20T04:55:57.621Z,1.40
2022-09-20T04:57:23.124Z,1.30
2022-09-20T04:58:39.169Z,1.20
2022-09-20T05:02:36.955Z,1.48
2022-09-20T05:04:19.500Z,1.40
2022-09-20T05:05:45.911Z,1.50
2022-09-20T05:07:29.251Z,1.30
2022-09-20T05:09:19.801Z,1.35
2022-09-20T05:10:49.255Z,1.17
2022-09-20T05:12:44.008Z,1.30
2022-09-20T05:14:26.188Z,1.20
2022-09-20T05:15:50.620Z,1.20
2022-09-20T05:17:05.188Z,1.30
2022-09-20T05:18:42.605Z,1.40
2022-09-20T05:20:44.381Z,1.30
2022-09-20T05:22:19.076Z,1.20
2022-09-20T05:24:15.720Z,1.40
2022-09-20T05:26:03.952Z,1.42
2022-09-20T05:27:42.506Z,1.30
2022-09-20T05:29:30.102Z,1.50
2022-09-20T05:31:09.856Z,1.40
2022-09-20T05:33:01.587Z,1.30
2022-09-20T05:34:45.146Z,1.27
2022-09-20T05:36:10.313Z,1.20
2022-09-20T05:37:55.854Z,1.30
2022-09-20T05:39:32.560Z,1.20
2022-09-20T05:41:14.576Z,1.30
2022-09-20T05:43:39.091Z,1.30
2022-09-20T05:45:44.706Z,1.20
2022-09-20T05:47:24.322Z,1.30
2022-09-20T05:49:16.925Z,1.17
2022-09-20T05:51:25.494Z,1.30
2022-09-20T05:53:25.834Z,1.40
2022-09-20T05:55:10.570Z,1.20
2022-09-20T05:56:29.874Z,1.23
2022-09-20T05:58:08.935Z,1.30
2022-09-20T06:00:21.679Z,1.20
2022-09-20T06:01:33.116Z,1.20
2022-09-20T06:04:39.592Z,1.38
2022-09-20T06:04:58.026Z,1.20
2022-09-20T06:06:55.867Z,1.38
2022-09-20T06:08:49.369Z,1.20
2022-09-20T06:23:00.609Z,1.35
2022-09-20T06:24:54.341Z,1.30
2022-09-20T06:26:11.377Z,1.35
2022-09-20T06:27:30.124Z,1.60
2022-09-20T06:28:46.220Z,1.20
2022-09-20T06:30:04.125Z,1.23
2022-09-20T06:31:10.457Z,1.25
2022-09-20T06:32:18.907Z,1.20
2022-09-20T06:33:26.267Z,1.20
2022-09-20T06:34:30.910Z,1.40
2022-09-20T06:36:40.212Z,1.30
2022-09-20T06:38:46.773Z,1.20
2022-09-20T06:41:08.797Z,1.10
2022-09-20T06:42:15.516Z,1.30
2022-09-20T06:43:20.058Z,1.10
2022-09-20T06:44:24.718Z,1.27
2022-09-20T06:45:29.347Z,1.30
2022-09-20T06:46:36.586Z,1.20
2022-09-20T06:47:40.735Z,1.20
2022-09-20T06:48:45.000Z,1.30
2022-09-20T06:49:51.734Z,1.30
2022-09-20T06:50:56.426Z,1.35
2022-09-20T06:52:01.890Z,1.20
2022-09-20T06:53:10.774Z,1.23
2022-09-20T06:56:36.983Z,1.20
2022-09-20T06:58:11.404Z,1.25
2022-09-20T06:59:38.650Z,1.20
2022-09-20T07:00:42.789Z,1.20
2022-09-20T07:01:46.955Z,1.10
2022-09-20T07:02:51.886Z,1.20
2022-09-20T07:03:56.245Z,1.23
2022-09-20T07:05:00.497Z,1.35
2022-09-20T07:06:04.804Z,1.30
2022-09-20T07:07:18.387Z,1.40
2022-09-20T07:08:25.205Z,1.30
2022-09-20T07:09:29.094Z,1.30
2022-09-20T07:10:44.531Z,1.30
2022-09-20T07:11:48.395Z,1.20
2022-09-20T07:12:55.259Z,1.10
2022-09-20T07:13:59.573Z,1.20
2022-09-20T07:15:03.777Z,1.30
2022-09-20T07:16:11.874Z,1.30
2022-09-20T07:17:15.593Z,1.27
2022-09-20T07:18:20.180Z,1.17
2022-09-20T07:19:23.937Z,1.33
2022-09-20T07:20:28.970Z,1.30
2022-09-20T07:21:34.692Z,1.20
2022-09-20T07:22:38.489Z,1.30
2022-09-20T07:23:42.915Z,1.10
2022-09-20T07:24:52.545Z,1.10
2022-09-20T07:26:01.517Z,1.20
2022-09-20T07:27:06.316Z,1.10
2022-09-20T07:28:10.243Z,1.20
2022-09-20T07:29:13.956Z,1.10
2022-09-20T07:30:21.745Z,1.17
2022-09-20T07:31:28.129Z,1.20
2022-09-20T07:32:31.938Z,1.20
2022-09-20T07:33:43.503Z,1.10
2022-09-20T07:34:47.333Z,1.15
2022-09-20T07:35:58.234Z,1.30
2022-09-20T07:37:02.690Z,1.20
2022-09-20T07:38:10.628Z,1.33
2022-09-20T07:39:14.849Z,1.20
2022-09-20T07:40:20.295Z,1.30
2022-09-20T07:41:25.150Z,1.23
2022-09-20T07:42:29.938Z,1.27
2022-09-20T07:43:34.659Z,1.25
2022-09-20T07:44:41.070Z,1.20
2022-09-20T07:45:44.751Z,1.20
2022-09-20T07:46:54.017Z,1.20
2022-09-20T07:48:05.609Z,1.10
2022-09-20T07:49:10.869Z,1.10
2022-09-20T07:50:15.171Z,1.30
2022-09-20T07:51:19.698Z,1.30
2022-09-20T07:52:23.419Z,1.10
2022-09-20T07:53:26.974Z,1.10
2022-09-20T07:54:31.444Z,1.20
2022-09-20T07:55:36.049Z,1.10
2022-09-20T07:56:41.493Z,0.90
2022-09-20T07:57:48.408Z,1.10
2022-09-20T07:58:52.723Z,1.00
2022-09-20T07:59:57.257Z,1.10
2022-09-20T08:01:09.581Z,1.10
2022-09-20T08:02:16.512Z,1.10
2022-09-20T08:03:20.556Z,1.00
2022-09-20T08:04:24.639Z,1.27
2022-09-20T08:05:28.745Z,0.90
2022-09-20T08:06:37.230Z,0.88
2022-09-20T08:07:40.965Z,0.80
2022-09-20T08:08:45.237Z,0.88
2022-09-20T08:09:49.078Z,0.85
2022-09-20T08:10:55.737Z,0.80
2022-09-20T08:11:59.446Z,0.85
2022-09-20T08:14:29.703Z,0.80
2022-09-20T08:15:40.152Z,0.80
2022-09-20T08:16:50.729Z,0.70
2022-09-20T08:17:55.009Z,0.70
2022-09-20T08:19:03.489Z,1.00
2022-09-20T08:20:08.290Z,0.73
2022-09-20T08:21:11.967Z,0.70
2022-09-20T08:22:15.910Z,0.90
2022-09-20T08:23:24.043Z,0.70
2022-09-20T08:24:28.284Z,0.70
2022-09-20T08:25:33.383Z,0.82
2022-09-20T08:26:42.511Z,0.70
2022-09-20T08:27:53.624Z,0.80
2022-09-20T08:29:00.103Z,0.80
2022-09-20T08:30:04.807Z,0.70
2022-09-20T08:31:13.527Z,0.80
2022-09-20T08:32:19.963Z,0.80
2022-09-20T08:33:24.266Z,0.70
2022-09-20T08:34:28.356Z,0.90
2022-09-20T08:35:38.215Z,0.80
2022-09-20T08:36:47.167Z,0.75
2022-09-20T08:37:55.205Z,0.80
2022-09-20T08:40:24.997Z,0.80
2022-09-20T08:41:34.325Z,0.90
2022-09-20T08:42:43.732Z,0.80
2022-09-20T08:44:03.810Z,0.85
2022-09-20T08:45:34.522Z,0.90
2022-09-20T08:46:51.934Z,0.90
2022-09-20T08:48:05.845Z,0.90
2022-09-20T08:49:23.518Z,1.00
2022-09-20T08:50:28.926Z,0.90
2022-09-20T08:51:41.964Z,0.90
2022-09-20T08:52:49.806Z,0.90
2022-09-20T08:53:56.395Z,0.90
2022-09-20T08:55:07.457Z,1.02
2022-09-20T08:56:11.913Z,0.82
2022-09-20T08:57:20.548Z,0.90
2022-09-20T08:58:28.358Z,0.80
2022-09-20T08:59:33.769Z,0.80
2022-09-20T09:00:45.071Z,0.80
2022-09-20T09:01:55.291Z,1.08
2022-09-20T09:03:12.960Z,0.90
2022-09-20T09:04:24.414Z,0.80
2022-09-20T09:05:53.125Z,1.00
2022-09-20T09:06:57.837Z,0.80
2022-09-20T09:08:16.995Z,1.00
2022-09-20T09:09:28.048Z,1.00
2022-09-20T09:11:16.622Z,0.90
2022-09-20T09:12:30.831Z,0.90
2022-09-20T09:13:54.062Z,0.90
2022-09-20T09:15:18.183Z,0.90
2022-09-20T09:16:33.648Z,0.80
2022-09-20T09:17:38.946Z,1.00
2022-09-20T09:18:45.975Z,0.80
2022-09-20T09:19:57.328Z,0.80
2022-09-20T09:21:04.342Z,0.73
2022-09-20T09:22:08.277Z,0.80
2022-09-20T09:23:26.545Z,0.70
2022-09-20T09:24:34.080Z,0.85
2022-09-20T09:25:42.148Z,0.80
2022-09-20T09:26:47.163Z,0.70
2022-09-20T09:27:57.967Z,0.70
2022-09-20T09:29:21.868Z,0.70
2022-09-20T09:30:47.897Z,0.73
2022-09-20T09:32:31.313Z,0.63
2022-09-20T09:33:35.169Z,0.77
2022-09-20T09:34:39.020Z,0.70
2022-09-20T09:35:45.489Z,0.70
2022-09-20T09:36:57.484Z,0.60
2022-09-20T09:38:03.103Z,0.70
2022-09-20T09:39:39.453Z,0.60
2022-09-20T09:40:59.097Z,0.60
2022-09-20T09:42:30.171Z,0.70
2022-09-20T09:43:41.063Z,0.68
2022-09-20T09:44:50.558Z,0.60
2022-09-20T09:46:21.163Z,0.90
2022-09-20T09:47:41.167Z,0.70
2022-09-20T09:48:54.421Z,0.68
2022-09-20T09:50:06.255Z,0.70
2022-09-20T09:51:23.736Z,0.80
2022-09-20T09:52:33.387Z,0.70
2022-09-20T09:53:39.482Z,0.70
2022-09-20T09:54:55.252Z,0.70
2022-09-20T09:57:03.079Z,0.85
2022-09-20T09:58:22.003Z,0.60
2022-09-20T09:59:51.836Z,0.70
2022-09-20T10:00:59.781Z,0.70
2022-09-20T10:02:41.320Z,0.60
2022-09-20T10:04:11.222Z,0.65
2022-09-20T10:05:41.423Z,0.70
2022-09-20T10:07:23.702Z,0.60
2022-09-20T10:09:33.685Z,0.80
2022-09-20T10:11:12.301Z,0.70
2022-09-20T10:12:33.577Z,0.70
2022-09-20T10:13:46.305Z,0.70
2022-09-20T10:15:35.202Z,0.80
2022-09-20T10:17:16.749Z,0.80
2022-09-20T10:18:51.051Z,0.70
2022-09-20T10:20:30.121Z,0.80
2022-09-20T10:22:31.474Z,1.00
2022-09-20T10:25:40.714Z,0.77
2022-09-20T10:27:29.996Z,0.80
2022-09-20T10:29:15.868Z,0.80
2022-09-20T10:30:48.702Z,0.80
2022-09-20T10:31:52.538Z,0.80
2022-09-20T10:33:01.155Z,0.90
2022-09-20T10:34:45.912Z,0.90
2022-09-20T10:36:15.500Z,0.80
2022-09-20T10:37:53.084Z,0.90
2022-09-20T10:39:27.373Z,0.82
2022-09-20T10:41:06.676Z,0.90
2022-09-20T10:43:16.103Z,0.90
2022-09-20T10:44:19.702Z,0.80
2022-09-20T10:46:31.373Z,0.80
2022-09-20T10:47:59.330Z,0.80
2022-09-20T10:49:25.069Z,0.80
2022-09-20T10:51:06.289Z,0.75
2022-09-20T10:52:16.115Z,0.80
2022-09-20T10:53:35.490Z,0.90
2022-09-20T10:54:41.796Z,0.80
2022-09-20T10:56:16.911Z,0.82
2022-09-20T10:57:53.072Z,1.00
2022-09-20T10:59:40.384Z,0.90
2022-09-20T11:01:04.003Z,0.90
2022-09-20T11:02:26.738Z,0.90
2022-09-20T11:04:04.235Z,0.90
2022-09-20T11:05:33.317Z,0.93
2022-09-20T11:07:03.735Z,1.10
2022-09-20T11:08:26.423Z,0.90
2022-09-20T11:09:42.912Z,0.98
2022-09-20T11:10:55.221Z,0.90
2022-09-20T11:12:42.743Z,0.90
2022-09-20T11:13:59.433Z,1.00
2022-09-20T11:15:21.701Z,0.90
2022-09-20T11:17:00.607Z,0.90
2022-09-20T11:18:15.096Z,0.93
2022-09-20T11:20:12.894Z,1.10
2022-09-20T11:21:48.635Z,0.80
2022-09-20T11:23:19.368Z,0.80
2022-09-20T11:24:45.350Z,0.80
2022-09-20T11:25:58.796Z,0.90
2022-09-20T11:27:33.175Z,0.90
2022-09-20T11:28:52.577Z,0.80
2022-09-20T11:30:04.620Z,1.02
2022-09-20T11:31:22.559Z,0.80
2022-09-20T11:32:39.764Z,0.90
2022-09-20T11:34:02.632Z,0.80
2022-09-20T11:35:12.053Z,0.73
2022-09-20T11:36:28.725Z,0.85
2022-09-20T11:37:46.797Z,0.73
2022-09-20T11:39:07.825Z,0.80
2022-09-20T11:40:28.943Z,0.80
2022-09-20T11:41:36.258Z,0.77
2022-09-20T11:42:42.689Z,0.80
2022-09-20T11:43:49.043Z,0.80
2022-09-20T11:44:55.296Z,0.80
2022-09-20T11:46:14.142Z,0.80
2022-09-20T11:47:52.849Z,0.80
2022-09-20T11:49:20.900Z,0.90
2022-09-20T11:51:10.253Z,0.90
2022-09-20T11:53:06.637Z,0.80
2022-09-20T11:54:56.073Z,0.80
2022-09-20T11:56:20.787Z,0.70
2022-09-20T11:57:25.882Z,0.80
2022-09-20T11:58:31.667Z,0.73
2022-09-20T11:59:51.591Z,0.90
2022-09-20T12:00:59.539Z,0.70
2022-09-20T12:02:18.366Z,0.80
2022-09-20T12:03:36.418Z,0.82
2022-09-20T12:04:49.662Z,0.70
2022-09-20T12:06:01.924Z,0.80
2022-09-20T12:07:19.760Z,0.80
2022-09-20T12:08:35.817Z,0.90
2022-09-20T12:09:45.675Z,0.80
2022-09-20T12:11:11.473Z,0.70
2022-09-20T12:12:28.369Z,0.88
2022-09-20T12:13:39.111Z,0.80
2022-09-20T12:14:55.229Z,0.80
2022-09-20T12:16:05.780Z,0.90
2022-09-20T12:17:47.789Z,0.70
2022-09-20T12:18:54.097Z,0.80
2022-09-20T12:19:57.649Z,0.77
2022-09-20T12:21:16.590Z,0.80
2022-09-20T12:22:30.154Z,0.80
2022-09-20T12:23:46.127Z,0.80
2022-09-20T12:25:39.305Z,0.70
2022-09-20T12:26:45.078Z,0.80
2022-09-20T12:27:48.724Z,0.80
2022-09-20T12:28:55.343Z,0.80
2022-09-20T12:30:24.072Z,0.80
2022-09-20T12:31:34.335Z,0.80
2022-09-20T12:32:58.942Z,0.90
2022-09-20T12:34:10.204Z,0.80
2022-09-20T12:35:45.498Z,0.70
2022-09-20T12:36:54.843Z,0.85
2022-09-20T12:38:33.225Z,0.70
2022-09-20T12:39:52.692Z,0.70
2022-09-20T12:41:06.710Z,0.85
2022-09-20T12:42:10.681Z,0.80
2022-09-20T12:43:22.900Z,0.80
2022-09-20T12:44:45.667Z,0.90
2022-09-20T12:46:02.887Z,0.70
2022-09-20T12:47:11.017Z,0.80
2022-09-20T12:48:20.196Z,0.77
2022-09-20T12:50:06.141Z,0.95
2022-09-20T12:51:44.197Z,0.70
2022-09-20T12:52:54.221Z,0.70
2022-09-20T12:54:03.010Z,0.88
2022-09-20T12:55:11.004Z,0.70
2022-09-20T12:56:28.136Z,0.82
2022-09-20T12:57:35.848Z,0.82
2022-09-20T12:58:58.003Z,0.80
2022-09-20T13:00:06.321Z,0.80
2022-09-20T13:01:14.080Z,0.70
2022-09-20T13:02:52.645Z,0.80
2022-09-20T13:04:55.503Z,0.80
2022-09-20T13:06:12.477Z,0.70
2022-09-20T13:07:44.046Z,0.80
2022-09-20T13:09:02.017Z,0.75
2022-09-20T13:10:30.652Z,0.80
2022-09-20T13:11:47.740Z,0.80
2022-09-20T13:13:02.685Z,0.70
2022-09-20T13:14:09.417Z,0.75
2022-09-20T13:15:21.646Z,0.80
2022-09-20T13:16:37.331Z,0.80
2022-09-20T13:17:43.568Z,0.70
2022-09-20T13:18:48.946Z,0.80
2022-09-20T13:19:54.908Z,0.77
2022-09-20T13:21:07.114Z,0.80
2022-09-20T13:22:37.961Z,0.80
2022-09-20T13:23:54.364Z,0.90
2022-09-20T13:25:05.787Z,0.95
2022-09-20T13:26:13.510Z,0.80
2022-09-20T13:27:51.115Z,1.00
2022-09-20T13:28:59.208Z,0.80
2022-09-20T13:30:25.523Z,0.80
2022-09-20T13:31:33.813Z,0.80
2022-09-20T13:32:41.786Z,0.80
2022-09-20T13:33:45.454Z,0.80
2022-09-20T13:35:19.033Z,0.80
2022-09-20T13:36:30.558Z,0.80
2022-09-20T13:37:37.039Z,0.80
2022-09-20T13:38:41.795Z,0.85
2022-09-20T13:39:45.364Z,0.70
2022-09-20T13:40:51.749Z,0.70
2022-09-20T13:42:02.659Z,0.80
2022-09-20T13:43:25.438Z,0.80
2022-09-20T13:44:34.552Z,0.80
2022-09-20T13:45:53.662Z,0.80
2022-09-20T13:46:57.420Z,0.80
2022-09-20T13:48:02.310Z,0.82
2022-09-20T13:49:24.962Z,0.80
2022-09-20T13:50:40.943Z,0.80
2022-09-20T13:51:49.033Z,0.80
2022-09-20T13:52:58.146Z,0.82
2022-09-20T13:54:28.670Z,0.80
2022-09-20T13:55:42.140Z,0.90
2022-09-20T13:56:46.146Z,0.82
2022-09-20T13:57:49.833Z,0.80
2022-09-20T13:58:55.965Z,0.80
2022-09-20T14:00:01.887Z,0.90
2022-09-20T14:01:31.265Z,0.80
2022-09-20T14:02:35.173Z,0.88
2022-09-20T14:03:39.631Z,0.90
2022-09-20T14:04:44.372Z,0.90
2022-09-20T14:06:00.294Z,0.82
2022-09-20T14:07:08.444Z,1.23
2022-09-20T14:08:29.036Z,0.80
2022-09-20T14:09:39.527Z,0.80
2022-09-20T14:10:43.901Z,0.90
2022-09-20T14:11:48.846Z,0.80
2022-09-20T14:12:54.700Z,0.90
2022-09-20T14:14:05.157Z,0.90
2022-09-20T14:15:11.497Z,0.73
2022-09-20T14:16:18.646Z,0.80
2022-09-20T14:17:25.084Z,0.80
2022-09-20T14:18:28.897Z,0.70
2022-09-20T14:19:41.623Z,0.90
2022-09-20T14:20:46.606Z,1.00
2022-09-20T14:21:50.625Z,0.80
2022-09-20T14:22:59.064Z,0.80
2022-09-20T14:24:28.893Z,0.80
2022-09-20T14:25:33.920Z,0.80
2022-09-20T14:26:40.407Z,0.80
2022-09-20T14:27:44.571Z,0.90
2022-09-20T14:28:48.882Z,0.85
2022-09-20T14:29:55.082Z,0.80
2022-09-20T14:31:14.344Z,0.80
2022-09-20T14:32:18.069Z,0.80
2022-09-20T14:33:21.870Z,0.80
2022-09-20T14:34:26.401Z,0.80
2022-09-20T14:35:31.379Z,0.80
2022-09-20T14:36:34.914Z,0.80
2022-09-20T14:37:50.789Z,0.70
2022-09-20T14:39:06.814Z,0.70
2022-09-20T14:40:21.958Z,0.80
2022-09-20T14:41:31.831Z,0.80
2022-09-20T14:42:42.650Z,0.80
2022-09-20T14:43:46.184Z,0.80
2022-09-20T14:44:53.181Z,0.75
2022-09-20T14:46:01.647Z,0.90
2022-09-20T14:47:16.142Z,0.70
2022-09-20T14:48:19.674Z,0.90
2022-09-20T14:49:26.235Z,0.80
2022-09-20T14:50:43.853Z,0.80
2022-09-20T14:51:49.630Z,0.90
2022-09-20T14:53:11.444Z,0.80
2022-09-20T14:54:22.595Z,0.80
2022-09-20T14:55:33.794Z,0.80
2022-09-20T14:56:51.268Z,1.00
2022-09-20T14:58:11.416Z,0.80
2022-09-20T14:59:14.893Z,0.80
2022-09-20T15:00:19.650Z,0.80
2022-09-20T15:01:26.004Z,0.90
2022-09-20T15:02:29.899Z,0.80
2022-09-20T15:03:40.251Z,0.80
2022-09-20T15:05:00.381Z,0.82
2022-09-20T15:06:04.297Z,0.80
2022-09-20T15:07:11.673Z,0.80
2022-09-20T15:08:15.925Z,0.90
2022-09-20T15:09:22.049Z,0.80
2022-09-20T15:10:25.771Z,0.80
2022-09-20T15:11:30.202Z,0.80
2022-09-20T15:12:33.880Z,0.70
2022-09-20T15:13:38.057Z,0.77
2022-09-20T15:14:42.429Z,0.70
2022-09-20T15:15:52.785Z,0.70
2022-09-20T15:16:58.844Z,0.80
2022-09-20T15:18:03.449Z,0.80
2022-09-20T15:19:08.685Z,0.80
2022-09-20T15:20:24.362Z,0.90
2022-09-20T15:21:28.553Z,0.90
2022-09-20T15:22:32.753Z,0.73
2022-09-20T15:23:37.140Z,0.80
2022-09-20T15:24:41.677Z,0.70
2022-09-20T15:25:45.795Z,0.90
2022-09-20T15:26:49.553Z,0.80
2022-09-20T15:27:53.340Z,0.80
2022-09-20T15:28:56.958Z,0.90
2022-09-20T15:30:00.999Z,0.80
2022-09-20T15:31:05.137Z,0.80
2022-09-20T15:32:11.388Z,0.80
2022-09-20T15:33:15.551Z,0.80
2022-09-20T15:34:19.671Z,0.80
2022-09-20T15:35:23.617Z,0.80
2022-09-20T15:36:32.026Z,0.80
2022-09-20T15:37:36.311Z,0.80
2022-09-20T15:38:39.828Z,0.80
2022-09-20T15:39:43.593Z,0.90
2022-09-20T15:40:50.130Z,0.70
2022-09-20T15:41:54.425Z,0.90
2022-09-20T15:42:59.563Z,0.80
2022-09-20T15:44:07.243Z,0.80
2022-09-20T15:45:12.718Z,0.80
2022-09-20T15:46:23.011Z,0.80
2022-09-20T15:47:28.522Z,0.80
2022-09-20T15:48:32.143Z,0.80
2022-09-20T15:49:35.774Z,0.80
2022-09-20T15:50:40.521Z,0.90
2022-09-20T15:51:44.171Z,0.80
2022-09-20T15:52:49.242Z,0.82
2022-09-20T15:54:06.427Z,0.80
2022-09-20T15:55:10.216Z,0.88
2022-09-20T15:56:32.100Z,0.80
2022-09-20T15:57:36.351Z,0.80
2022-09-20T15:58:45.767Z,0.80
2022-09-20T15:59:50.219Z,0.73
2022-09-20T16:00:54.053Z,0.80
2022-09-20T16:01:57.648Z,0.80
2022-09-20T16:03:01.983Z,0.90
2022-09-20T16:04:10.462Z,0.80
2022-09-20T16:05:16.828Z,0.88
2022-09-20T16:06:26.360Z,0.90
2022-09-20T16:07:30.142Z,0.80
2022-09-20T16:08:36.190Z,0.80
2022-09-20T16:09:39.893Z,0.80
2022-09-20T16:10:46.085Z,0.90
2022-09-20T16:11:49.946Z,0.80
2022-09-20T16:12:53.588Z,0.80
2022-09-20T16:14:01.326Z,0.90
2022-09-20T16:15:05.455Z,0.90
2022-09-20T16:16:15.853Z,0.90
2022-09-20T16:17:39.976Z,0.90
2022-09-20T16:19:02.110Z,0.90
2022-09-20T16:20:07.027Z,0.90
2022-09-20T16:21:13.725Z,1.00
2022-09-20T16:22:19.479Z,1.00
2022-09-20T16:23:26.016Z,0.98
2022-09-20T16:24:33.689Z,1.00
2022-09-20T16:25:37.408Z,0.90
2022-09-20T16:26:41.756Z,1.10
2022-09-20T16:27:45.423Z,0.90
2022-09-20T16:28:49.981Z,0.90
2022-09-20T16:29:53.887Z,0.95
2022-09-20T16:30:59.428Z,1.00
2022-09-20T16:32:03.889Z,0.98
2022-09-20T16:33:11.914Z,1.00
2022-09-20T16:34:19.741Z,0.90
2022-09-20T16:35:23.361Z,1.10
2022-09-20T16:36:27.754Z,1.00
2022-09-20T16:37:32.899Z,1.00
2022-09-20T16:38:39.795Z,1.00
2022-09-20T16:39:44.401Z,0.90
2022-09-20T16:40:55.834Z,0.98
2022-09-20T16:42:05.767Z,1.00
2022-09-20T16:43:09.747Z,1.00
2022-09-20T16:44:14.083Z,0.90
2022-09-20T16:45:23.769Z,0.93
2022-09-20T16:46:31.202Z,0.90
2022-09-20T16:47:34.990Z,1.00
2022-09-20T16:48:38.544Z,0.90
2022-09-20T16:49:42.374Z,0.90
2022-09-20T16:50:54.710Z,0.90
2022-09-20T16:51:58.226Z,1.00
2022-09-20T16:53:01.944Z,1.02
2022-09-20T16:54:14.849Z,0.90
2022-09-20T16:55:19.844Z,0.90
2022-09-20T16:56:27.788Z,1.00
2022-09-20T16:57:32.200Z,0.95
2022-09-20T16:58:36.703Z,1.10
2022-09-20T16:59:40.910Z,1.00
2022-09-20T17:00:44.555Z,1.08
2022-09-20T17:01:49.925Z,1.00
2022-09-20T17:02:53.422Z,1.10
2022-09-20T17:03:57.353Z,1.10
2022-09-20T17:05:01.175Z,1.10
2022-09-20T17:06:06.091Z,1.00
2022-09-20T17:07:09.685Z,1.00
2022-09-20T17:08:14.084Z,1.10
2022-09-20T17:09:18.066Z,1.00
2022-09-20T17:10:24.412Z,1.00
2022-09-20T17:11:31.458Z,1.00
2022-09-20T17:12:41.551Z,1.00
2022-09-20T17:13:47.224Z,0.80
2022-09-20T17:14:50.933Z,0.80
2022-09-20T17:16:10.558Z,0.80
2022-09-20T17:17:14.023Z,0.80
2022-09-20T17:18:17.574Z,0.80
2022-09-20T17:19:21.804Z,0.70
2022-09-20T17:20:27.589Z,0.80
2022-09-20T17:21:32.414Z,0.90
2022-09-20T17:22:36.001Z,0.80
2022-09-20T17:23:42.338Z,0.85
2022-09-20T17:24:46.141Z,0.90
2022-09-20T17:26:02.210Z,0.80
2022-09-20T17:27:07.134Z,0.80
2022-09-20T17:28:10.708Z,1.08
2022-09-20T17:29:17.572Z,0.80
2022-09-20T17:30:22.348Z,0.75
2022-09-20T17:31:33.858Z,0.80
2022-09-20T17:32:39.283Z,0.80
2022-09-20T17:37:13.830Z,0.90
2022-09-20T17:38:17.582Z,0.90
2022-09-20T17:39:22.234Z,0.80
2022-09-20T17:40:25.840Z,0.90
2022-09-20T17:41:30.555Z,0.90
2022-09-20T17:42:34.912Z,0.88
2022-09-20T17:43:39.646Z,0.90
2022-09-20T17:44:43.369Z,1.00
2022-09-20T17:45:46.857Z,0.90
2022-09-20T17:46:51.612Z,0.85
2022-09-20T17:47:57.430Z,0.98
2022-09-20T17:49:06.961Z,0.90
2022-09-20T17:50:14.837Z,0.85
2022-09-20T17:51:20.374Z,1.00
2022-09-20T17:52:23.865Z,1.00
2022-09-20T17:53:27.623Z,0.90
2022-09-20T17:54:31.083Z,0.90
2022-09-20T17:55:34.598Z,1.05
2022-09-20T17:56:38.571Z,1.08
2022-09-20T17:57:42.083Z,0.90
2022-09-20T17:58:45.799Z,0.90
2022-09-20T17:59:49.330Z,0.93
2022-09-20T18:00:58.581Z,1.00
2022-09-20T18:02:02.028Z,0.90
2022-09-20T18:03:05.447Z,0.90
2022-09-20T18:04:10.599Z,0.82
2022-09-20T18:05:14.401Z,0.90
2022-09-20T18:06:44.387Z,1.10
2022-09-20T18:07:48.038Z,1.00
2022-09-20T18:09:07.657Z,0.80
2022-09-20T18:10:15.853Z,0.90
2022-09-20T18:11:23.522Z,1.10
2022-09-20T18:12:27.040Z,0.93
2022-09-20T18:13:31.042Z,0.80
2022-09-20T18:14:34.775Z,0.90
2022-09-20T18:15:38.537Z,0.93
2022-09-20T18:16:45.740Z,0.90
2022-09-20T18:17:54.358Z,1.00
2022-09-20T18:18:59.842Z,0.90
2022-09-20T18:20:04.291Z,0.88
2022-09-20T18:21:23.224Z,0.80
2022-09-20T18:22:27.101Z,1.00
2022-09-20T18:23:30.637Z,1.00
2022-09-20T18:24:34.211Z,1.10
2022-09-20T18:25:56.529Z,0.80
2022-09-20T18:27:01.241Z,0.90